Terminal Aerodrome Forecast
Issued by NWS Jackson, MS

Home | Current Version | Previous Version | Text Only | Print | Product List | Glossary On
Versions: 1 2 3 4 5 6 7 8 9 10 11 12 13
000
FTUS44 KJAN 290500
TAFGLH
TAF
KGLH 290520Z 2906/3006 19003KT P6SM FEW100 FEW250
     FM291430 21006KT P6SM SCT040 SCT250
     FM291900 20008KT P6SM VCTS BKN050CB BKN250
     FM300100 16004KT P6SM BKN250=

USA.gov is the U.S. government's official web portal to all federal, state and local government web resources and services.